createdAt,value
2019-02-01T00:00:45.343Z,5.07
2019-02-01T00:04:49.541Z,4.30
2019-02-01T00:08:53.698Z,5.13
2019-02-01T00:12:58.013Z,4.37
2019-02-01T00:17:02.138Z,4.23
2019-02-01T00:21:06.527Z,4.47
2019-02-01T00:25:10.757Z,4.77
2019-02-01T00:29:14.854Z,4.27
2019-02-01T00:33:26.874Z,4.50
2019-02-01T00:37:24.890Z,4.43
2019-02-01T00:41:29.082Z,4.47
2019-02-01T00:45:33.279Z,4.60
2019-02-01T00:49:39.436Z,4.50
2019-02-01T00:53:43.289Z,4.80
2019-02-01T00:57:49.542Z,4.17
2019-02-01T01:01:54.017Z,4.70
2019-02-01T01:05:58.199Z,4.00
2019-02-01T01:10:02.363Z,4.00
2019-02-01T01:14:06.612Z,4.43
2019-02-01T01:18:11.205Z,4.37
2019-02-01T01:22:15.387Z,4.00
2019-02-01T01:26:19.586Z,5.00
2019-02-01T01:30:23.901Z,3.77
2019-02-01T01:34:28.094Z,4.40
2019-02-01T01:38:32.274Z,4.47
2019-02-01T01:42:36.545Z,4.00
2019-02-01T01:46:40.674Z,4.47
2019-02-01T01:50:44.850Z,4.10
2019-02-01T01:54:49.039Z,4.33
2019-02-01T01:58:53.154Z,4.40
2019-02-01T02:02:57.489Z,4.00
2019-02-01T02:07:01.708Z,4.53
2019-02-01T02:11:06.086Z,4.87
2019-02-01T02:15:10.559Z,4.97
2019-02-01T02:19:14.746Z,4.77
2019-02-01T02:23:18.941Z,4.90
2019-02-01T02:27:23.125Z,5.37
2019-02-01T02:31:27.797Z,5.80
2019-02-01T02:35:32.047Z,5.60
2019-02-01T02:39:36.257Z,5.53
2019-02-01T02:43:40.435Z,6.57
2019-02-01T02:47:44.743Z,6.07
2019-02-01T02:51:48.911Z,6.93
2019-02-01T02:55:53.098Z,6.83
2019-02-01T02:59:57.291Z,7.17
2019-02-01T03:04:01.491Z,7.40
2019-02-01T03:08:05.896Z,7.83
2019-02-01T03:12:10.187Z,8.13
2019-02-01T03:16:14.367Z,7.97
2019-02-01T03:20:20.164Z,8.33
2019-02-01T03:24:24.304Z,9.70
2019-02-01T03:28:28.499Z,9.67
2019-02-01T03:32:32.806Z,10.27
2019-02-01T03:36:37.051Z,10.73
2019-02-01T03:40:41.279Z,11.03
2019-02-01T03:44:45.451Z,11.87
2019-02-01T03:48:49.646Z,13.27
2019-02-01T03:52:53.923Z,13.40
2019-02-01T03:57:00.172Z,13.73
2019-02-01T04:01:04.978Z,13.90
2019-02-01T04:05:09.282Z,13.80
2019-02-01T04:09:13.492Z,14.60
2019-02-01T04:13:17.715Z,15.30
2019-02-01T04:17:21.976Z,15.37
2019-02-01T04:21:26.270Z,16.07
2019-02-01T04:25:30.471Z,16.07
2019-02-01T04:29:34.666Z,16.27
2019-02-01T04:33:38.866Z,19.55
2019-02-01T04:37:43.112Z,17.40
2019-02-01T04:41:47.310Z,17.43
2019-02-01T04:45:51.588Z,17.60
2019-02-01T04:50:03.969Z,19.33
2019-02-01T04:54:01.717Z,19.80
2019-02-01T04:58:06.010Z,19.10
2019-02-01T05:02:10.207Z,20.47
2019-02-01T05:06:14.415Z,20.30
2019-02-01T05:10:18.822Z,20.23
2019-02-01T05:14:23.033Z,20.77
2019-02-01T05:18:27.216Z,22.03
2019-02-01T05:22:31.407Z,21.90
2019-02-01T05:26:35.600Z,22.37
2019-02-01T05:30:39.795Z,20.83
2019-02-01T05:34:43.999Z,21.60
2019-02-01T05:38:48.173Z,23.57
2019-02-01T05:42:52.383Z,22.93
2019-02-01T05:46:56.590Z,22.20
2019-02-01T05:51:00.811Z,23.83
2019-02-01T05:55:05.292Z,23.50
2019-02-01T05:59:09.459Z,24.67
2019-02-01T06:03:13.641Z,25.10
2019-02-01T06:07:17.950Z,25.23
2019-02-01T06:11:22.164Z,26.20
2019-02-01T06:15:26.394Z,26.67
2019-02-01T06:19:30.667Z,27.00
2019-02-01T06:23:34.872Z,28.33
2019-02-01T06:27:39.147Z,26.27
2019-02-01T06:31:43.345Z,27.57
2019-02-01T06:35:47.530Z,28.63
2019-02-01T06:39:51.697Z,28.73
2019-02-01T06:43:55.897Z,29.27
2019-02-01T06:48:00.089Z,32.20
2019-02-01T06:52:04.291Z,30.57
2019-02-01T06:56:08.587Z,31.67
2019-02-01T07:00:12.852Z,32.47
2019-02-01T07:04:32.798Z,31.93
2019-02-01T07:08:56.033Z,34.57
2019-02-01T07:13:12.998Z,33.63
2019-02-01T07:17:23.173Z,34.73
2019-02-01T07:21:45.864Z,33.10
2019-02-01T07:26:10.950Z,33.63
2019-02-01T07:30:23.406Z,32.30
2019-02-01T07:34:27.536Z,33.70
2019-02-01T07:38:31.974Z,33.53
2019-02-01T07:42:36.293Z,34.60
2019-02-01T07:46:40.537Z,35.57
2019-02-01T07:50:44.649Z,34.80
2019-02-01T07:54:48.770Z,35.97
2019-02-01T07:58:52.970Z,35.30
2019-02-01T08:02:57.468Z,37.33
2019-02-01T08:07:01.727Z,36.77
2019-02-01T08:11:05.931Z,35.67
2019-02-01T08:15:16.847Z,35.73
2019-02-01T08:19:21.034Z,36.13
2019-02-01T08:23:25.233Z,36.60
2019-02-01T08:27:29.424Z,37.23
2019-02-01T08:31:33.622Z,35.67
2019-02-01T08:35:37.801Z,36.77
2019-02-01T08:39:41.922Z,35.07
2019-02-01T08:43:46.123Z,34.87
2019-02-01T08:47:50.427Z,36.30
2019-02-01T08:51:54.639Z,37.07
2019-02-01T08:55:58.814Z,37.33
2019-02-01T09:00:03.006Z,36.57
2019-02-01T09:04:07.211Z,36.47
2019-02-01T09:08:11.502Z,36.30
2019-02-01T09:12:15.738Z,35.67
2019-02-01T09:16:19.990Z,35.37
2019-02-01T09:20:24.122Z,37.43
2019-02-01T09:24:28.313Z,35.00
2019-02-01T09:28:32.443Z,34.63
2019-02-01T09:32:36.619Z,34.43
2019-02-01T09:36:40.837Z,36.53
2019-02-01T09:40:47.686Z,34.77
2019-02-01T09:44:51.916Z,35.33
2019-02-01T09:48:56.123Z,35.67
2019-02-01T09:53:00.303Z,34.57
2019-02-01T09:57:04.594Z,36.60
2019-02-01T10:01:08.802Z,35.73
2019-02-01T10:05:12.995Z,35.07
2019-02-01T10:09:17.181Z,35.07
2019-02-01T10:13:21.304Z,33.33
2019-02-01T10:17:25.491Z,34.30
2019-02-01T10:21:29.686Z,32.50
2019-02-01T10:25:33.883Z,35.47
2019-02-01T10:29:38.079Z,33.33
2019-02-01T10:33:43.126Z,31.80
2019-02-01T10:37:47.413Z,32.00
2019-02-01T10:42:02.969Z,33.67
2019-02-01T10:45:57.461Z,32.20
2019-02-01T10:50:01.656Z,31.63
2019-02-01T10:54:06.172Z,33.27
2019-02-01T10:58:10.326Z,33.57
2019-02-01T11:02:14.538Z,34.97
2019-02-01T11:06:18.753Z,35.67
2019-02-01T11:10:22.914Z,33.67
2019-02-01T11:14:27.179Z,32.90
2019-02-01T11:18:31.366Z,33.73
2019-02-01T11:22:36.878Z,32.07
2019-02-01T11:26:41.170Z,32.63
2019-02-01T11:30:45.391Z,32.87
2019-02-01T11:34:49.549Z,32.03
2019-02-01T11:38:54.077Z,31.70
2019-02-01T11:42:58.273Z,31.40
2019-02-01T11:47:02.538Z,33.50
2019-02-01T11:51:06.998Z,30.10
2019-02-01T11:55:11.282Z,29.63
2019-02-01T11:59:15.498Z,31.23
2019-02-01T12:03:21.788Z,33.10
2019-02-01T12:07:25.977Z,32.03
2019-02-01T12:11:30.096Z,31.13
2019-02-01T12:15:34.319Z,30.70
2019-02-01T12:19:38.503Z,30.97
2019-02-01T12:23:42.699Z,29.77
2019-02-01T12:27:46.902Z,29.87
2019-02-01T12:31:51.094Z,28.77
2019-02-01T12:35:55.290Z,29.50
2019-02-01T12:39:59.380Z,29.03
2019-02-01T12:44:03.678Z,30.00
2019-02-01T12:48:07.998Z,30.70
2019-02-01T12:52:12.383Z,29.33
2019-02-01T12:56:16.585Z,29.63
2019-02-01T13:00:23.338Z,31.13
2019-02-01T13:04:27.527Z,31.33
2019-02-01T13:08:31.641Z,30.50
2019-02-01T13:12:35.849Z,29.93
2019-02-01T13:16:40.019Z,28.77
2019-02-01T13:20:44.215Z,28.97
2019-02-01T13:24:48.404Z,28.40
2019-02-01T13:28:52.593Z,30.43
2019-02-01T13:32:57.067Z,28.87
2019-02-01T13:37:01.209Z,29.10
2019-02-01T13:41:05.422Z,28.77
2019-02-01T13:45:10.060Z,27.77
2019-02-01T13:49:14.260Z,26.50
2019-02-01T13:53:18.442Z,28.60
2019-02-01T13:57:22.710Z,27.13
2019-02-01T14:01:26.822Z,27.47
2019-02-01T14:05:30.961Z,27.17
2019-02-01T14:09:35.156Z,26.83
2019-02-01T14:13:42.486Z,26.87
2019-02-01T14:17:45.406Z,26.10
2019-02-01T14:21:49.661Z,26.40
2019-02-01T14:25:53.792Z,25.83
2019-02-01T14:29:57.974Z,25.97
2019-02-01T14:34:02.214Z,25.70
2019-02-01T14:38:07.314Z,26.57
2019-02-01T14:42:11.473Z,25.10
2019-02-01T14:46:15.700Z,25.47
2019-02-01T14:50:19.882Z,24.37
2019-02-01T14:54:24.111Z,25.73
2019-02-01T14:58:28.279Z,24.63
2019-02-01T15:02:32.477Z,24.93
2019-02-01T15:06:36.674Z,25.13
2019-02-01T15:10:40.933Z,26.07
2019-02-01T15:14:45.146Z,24.57
2019-02-01T15:18:49.318Z,26.50
2019-02-01T15:22:53.498Z,26.03
2019-02-01T15:26:57.610Z,23.80
2019-02-01T15:31:01.882Z,24.07
2019-02-01T15:35:07.169Z,25.03
2019-02-01T15:39:11.344Z,25.10
2019-02-01T15:43:16.759Z,22.97
2019-02-01T15:47:20.874Z,22.90
2019-02-01T15:51:25.514Z,23.53
2019-02-01T15:55:30.230Z,22.27
2019-02-01T15:59:34.485Z,27.37
2019-02-01T16:03:39.991Z,23.33
2019-02-01T16:07:44.298Z,23.37
2019-02-01T16:11:48.419Z,21.80
2019-02-01T16:15:52.870Z,22.00
2019-02-01T16:19:57.089Z,22.40
2019-02-01T16:24:06.741Z,21.03
2019-02-01T16:28:07.457Z,21.17
2019-02-01T16:32:11.584Z,21.37
2019-02-01T16:36:16.013Z,20.70
2019-02-01T16:40:20.458Z,20.03
2019-02-01T16:44:24.711Z,20.10
2019-02-01T16:48:28.898Z,21.43
2019-02-01T16:52:33.077Z,20.43
2019-02-01T16:56:37.265Z,19.67
2019-02-01T17:00:43.256Z,20.80
2019-02-01T17:04:47.418Z,20.93
2019-02-01T17:08:51.530Z,19.77
2019-02-01T17:12:56.797Z,22.03
2019-02-01T17:17:01.001Z,22.40
2019-02-01T17:21:05.151Z,22.77
2019-02-01T17:25:09.329Z,20.77
2019-02-01T17:29:13.557Z,20.90
2019-02-01T17:33:17.860Z,21.20
2019-02-01T17:37:22.324Z,21.63
2019-02-01T17:41:26.545Z,21.63
2019-02-01T17:45:31.371Z,21.67
2019-02-01T17:49:35.539Z,22.40
2019-02-01T17:53:39.740Z,21.90
2019-02-01T17:57:43.958Z,21.70
2019-02-01T18:01:48.239Z,21.17
2019-02-01T18:05:52.443Z,22.20
2019-02-01T18:09:56.618Z,20.70
2019-02-01T18:14:00.830Z,20.93
2019-02-01T18:18:05.062Z,21.20
2019-02-01T18:22:09.266Z,21.53
2019-02-01T18:26:13.445Z,20.97
2019-02-01T18:30:20.486Z,21.90
2019-02-01T18:34:24.771Z,20.97
2019-02-01T18:38:29.046Z,21.97
2019-02-01T18:42:33.304Z,22.67
2019-02-01T18:46:37.878Z,22.53
2019-02-01T18:50:45.046Z,21.70
2019-02-01T18:54:49.246Z,22.40
2019-02-01T18:58:53.738Z,23.17
2019-02-01T19:02:57.949Z,22.40
2019-02-01T19:07:02.064Z,23.47
2019-02-01T19:11:06.255Z,23.77
2019-02-01T19:15:13.717Z,23.23
2019-02-01T19:19:17.910Z,24.53
2019-02-01T19:23:22.092Z,23.87
2019-02-01T19:27:26.554Z,25.90
2019-02-01T19:31:30.669Z,25.23
2019-02-01T19:35:34.965Z,25.63
2019-02-01T19:39:39.086Z,25.53
2019-02-01T19:43:43.296Z,25.43
2019-02-01T19:47:47.459Z,24.47
2019-02-01T19:51:51.659Z,24.83
2019-02-01T19:55:57.160Z,26.03
2019-02-01T20:00:01.549Z,27.33
2019-02-01T20:04:05.738Z,27.87
2019-02-01T20:08:09.910Z,29.07
2019-02-01T20:12:14.130Z,26.37
2019-02-01T20:16:18.350Z,25.00
2019-02-01T20:20:24.582Z,26.00
2019-02-01T20:24:28.778Z,25.70
2019-02-01T20:28:33.039Z,27.63
2019-02-01T20:32:37.286Z,26.73
2019-02-01T20:36:41.413Z,27.00
2019-02-01T20:40:45.538Z,26.17
2019-02-01T20:44:49.731Z,26.77
2019-02-01T20:48:53.898Z,33.95
2019-02-01T20:53:00.184Z,28.73
2019-02-01T20:57:03.934Z,27.43
2019-02-01T21:01:09.290Z,27.33
2019-02-01T21:05:15.008Z,26.63
2019-02-01T21:09:19.162Z,28.13
2019-02-01T21:13:23.375Z,26.20
2019-02-01T21:17:27.581Z,26.73
2019-02-01T21:21:31.854Z,27.30
2019-02-01T21:25:36.138Z,27.03
2019-02-01T21:29:40.334Z,26.70
2019-02-01T21:33:44.527Z,28.53
2019-02-01T21:37:48.726Z,26.77
2019-02-01T21:41:52.958Z,27.23
2019-02-01T21:45:57.257Z,28.07
2019-02-01T21:50:01.363Z,27.63
2019-02-01T21:54:05.814Z,26.37
2019-02-01T21:58:10.114Z,27.83
2019-02-01T22:02:14.347Z,26.87
2019-02-01T22:06:18.551Z,27.77
2019-02-01T22:10:24.682Z,28.13
2019-02-01T22:14:28.889Z,27.67
2019-02-01T22:18:33.083Z,27.67
2019-02-01T22:22:37.336Z,27.90
2019-02-01T22:26:41.574Z,27.87
2019-02-01T22:30:45.783Z,26.90
2019-02-01T22:34:50.094Z,28.80
2019-02-01T22:38:54.438Z,28.30
2019-02-01T22:42:58.826Z,27.53
2019-02-01T22:47:03.174Z,27.77
2019-02-01T22:51:07.399Z,30.30
2019-02-01T22:55:11.794Z,28.67
2019-02-01T22:59:15.983Z,29.77
2019-02-01T23:03:20.435Z,27.80
2019-02-01T23:07:24.651Z,28.83
2019-02-01T23:11:29.022Z,28.07
2019-02-01T23:15:33.720Z,28.57
2019-02-01T23:19:37.854Z,29.37
2019-02-01T23:23:42.250Z,30.17
2019-02-01T23:27:47.583Z,29.23
2019-02-01T23:31:51.816Z,29.57
2019-02-01T23:35:55.985Z,30.63
2019-02-01T23:40:00.211Z,31.17
2019-02-01T23:44:04.754Z,30.47
2019-02-01T23:48:09.002Z,30.00
2019-02-01T23:52:13.165Z,31.83
2019-02-01T23:56:17.311Z,32.03
